sensor_id;sensor_type;location;lat;lon;timestamp;pressure;altitude;pressure_sealevel;temperature;humidity
11672;BME280;5892;43.412;24.612;2023-03-18T00:00:22;100651.19;;;1.45;100.00
11672;BME280;5892;43.412;24.612;2023-03-18T00:02:51;100642.53;;;1.59;100.00
11672;BME280;5892;43.412;24.612;2023-03-18T00:05:18;100652.06;;;1.62;100.00
11672;BME280;5892;43.412;24.612;2023-03-18T00:07:45;100643.47;;;1.65;100.00
11672;BME280;5892;43.412;24.612;2023-03-18T00:10:13;100636.72;;;1.51;100.00
11672;BME280;5892;43.412;24.612;2023-03-18T00:12:41;100635.91;;;1.50;100.00
11672;BME280;5892;43.412;24.612;2023-03-18T00:15:11;100637.28;;;1.53;100.00
11672;BME280;5892;43.412;24.612;2023-03-18T00:17:38;100635.22;;;1.43;100.00
11672;BME280;5892;43.412;24.612;2023-03-18T00:20:08;100632.06;;;1.46;100.00
11672;BME280;5892;43.412;24.612;2023-03-18T00:22:37;100636.06;;;1.44;100.00
11672;BME280;5892;43.412;24.612;2023-03-18T00:25:07;100637.38;;;1.41;100.00
11672;BME280;5892;43.412;24.612;2023-03-18T00:27:35;100633.22;;;1.50;100.00
11672;BME280;5892;43.412;24.612;2023-03-18T00:30:03;100631.50;;;1.61;100.00
11672;BME280;5892;43.412;24.612;2023-03-18T00:32:31;100619.97;;;1.65;100.00
11672;BME280;5892;43.412;24.612;2023-03-18T00:34:58;100629.88;;;1.77;100.00
11672;BME280;5892;43.412;24.612;2023-03-18T00:37:27;100620.81;;;1.83;100.00
11672;BME280;5892;43.412;24.612;2023-03-18T00:39:56;100629.38;;;1.80;100.00
11672;BME280;5892;43.412;24.612;2023-03-18T00:42:24;100624.97;;;1.90;100.00
11672;BME280;5892;43.412;24.612;2023-03-18T00:44:50;100618.56;;;1.96;100.00
11672;BME280;5892;43.412;24.612;2023-03-18T00:47:18;100620.06;;;2.04;100.00
11672;BME280;5892;43.412;24.612;2023-03-18T00:49:45;100610.38;;;2.08;100.00
11672;BME280;5892;43.412;24.612;2023-03-18T00:52:12;100607.41;;;2.09;100.00
11672;BME280;5892;43.412;24.612;2023-03-18T00:54:40;100590.56;;;2.02;100.00
11672;BME280;5892;43.412;24.612;2023-03-18T00:57:07;100608.72;;;2.24;100.00
11672;BME280;5892;43.412;24.612;2023-03-18T00:59:35;100574.97;;;2.09;100.00
11672;BME280;5892;43.412;24.612;2023-03-18T01:02:02;100587.59;;;2.21;100.00
11672;BME280;5892;43.412;24.612;2023-03-18T01:04:46;100602.66;;;2.33;100.00
11672;BME280;5892;43.412;24.612;2023-03-18T01:07:13;100487.22;;;1.57;100.00
11672;BME280;5892;43.412;24.612;2023-03-18T01:09:41;100573.13;;;2.32;100.00
11672;BME280;5892;43.412;24.612;2023-03-18T01:12:10;100596.19;;;2.56;100.00
11672;BME280;5892;43.412;24.612;2023-03-18T01:14:38;100601.56;;;2.51;100.00
11672;BME280;5892;43.412;24.612;2023-03-18T01:17:06;100582.41;;;2.58;100.00
11672;BME280;5892;43.412;24.612;2023-03-18T01:19:33;100551.88;;;2.19;100.00
11672;BME280;5892;43.412;24.612;2023-03-18T01:22:01;100591.53;;;2.51;100.00
11672;BME280;5892;43.412;24.612;2023-03-18T01:24:29;100515.50;;;1.88;100.00
11672;BME280;5892;43.412;24.612;2023-03-18T01:26:57;100576.91;;;2.31;100.00
11672;BME280;5892;43.412;24.612;2023-03-18T01:29:24;100565.09;;;2.37;100.00
11672;BME280;5892;43.412;24.612;2023-03-18T01:31:51;100600.78;;;2.55;100.00
11672;BME280;5892;43.412;24.612;2023-03-18T01:34:19;100610.78;;;2.55;100.00
11672;BME280;5892;43.412;24.612;2023-03-18T01:36:46;100605.38;;;2.55;100.00
11672;BME280;5892;43.412;24.612;2023-03-18T01:39:14;100605.88;;;2.52;100.00
11672;BME280;5892;43.412;24.612;2023-03-18T01:41:42;100611.28;;;2.52;100.00
11672;BME280;5892;43.412;24.612;2023-03-18T01:44:14;100614.50;;;2.49;100.00
11672;BME280;5892;43.412;24.612;2023-03-18T01:46:42;100614.91;;;2.41;100.00
11672;BME280;5892;43.412;24.612;2023-03-18T01:49:12;100599.50;;;2.41;100.00
11672;BME280;5892;43.412;24.612;2023-03-18T01:51:42;100571.78;;;2.12;100.00
11672;BME280;5892;43.412;24.612;2023-03-18T01:54:12;100564.16;;;2.09;100.00
11672;BME280;5892;43.412;24.612;2023-03-18T01:56:42;100606.16;;;2.34;100.00
11672;BME280;5892;43.412;24.612;2023-03-18T01:59:12;100606.47;;;2.37;100.00
11672;BME280;5892;43.412;24.612;2023-03-18T02:01:53;100619.53;;;2.40;100.00
11672;BME280;5892;43.412;24.612;2023-03-18T02:04:25;100607.69;;;2.46;100.00
11672;BME280;5892;43.412;24.612;2023-03-18T02:06:53;100610.06;;;2.43;100.00
11672;BME280;5892;43.412;24.612;2023-03-18T02:09:20;100615.13;;;2.56;100.00
11672;BME280;5892;43.412;24.612;2023-03-18T02:11:47;100611.22;;;2.47;100.00
11672;BME280;5892;43.412;24.612;2023-03-18T02:14:19;100591.75;;;2.28;100.00
11672;BME280;5892;43.412;24.612;2023-03-18T02:16:47;100609.59;;;2.46;100.00
11672;BME280;5892;43.412;24.612;2023-03-18T02:19:25;100633.28;;;2.39;100.00
11672;BME280;5892;43.412;24.612;2023-03-18T02:22:00;100616.81;;;2.40;100.00
11672;BME280;5892;43.412;24.612;2023-03-18T02:24:37;100606.72;;;2.36;100.00
11672;BME280;5892;43.412;24.612;2023-03-18T02:27:16;100614.75;;;2.31;100.00
11672;BME280;5892;43.412;24.612;2023-03-18T02:29:43;100614.13;;;2.24;100.00
11672;BME280;5892;43.412;24.612;2023-03-18T02:32:13;100581.72;;;2.07;100.00
11672;BME280;5892;43.412;24.612;2023-03-18T02:34:42;100591.44;;;2.25;100.00
11672;BME280;5892;43.412;24.612;2023-03-18T02:37:10;100618.88;;;2.33;100.00
11672;BME280;5892;43.412;24.612;2023-03-18T02:39:37;100609.84;;;2.44;100.00
11672;BME280;5892;43.412;24.612;2023-03-18T02:42:05;100631.22;;;2.46;100.00
11672;BME280;5892;43.412;24.612;2023-03-18T02:44:37;100590.00;;;2.39;100.00
11672;BME280;5892;43.412;24.612;2023-03-18T02:47:08;100613.50;;;2.55;100.00
11672;BME280;5892;43.412;24.612;2023-03-18T02:49:37;100602.09;;;2.53;100.00
11672;BME280;5892;43.412;24.612;2023-03-18T02:52:04;100604.13;;;2.63;100.00
11672;BME280;5892;43.412;24.612;2023-03-18T02:54:31;100608.75;;;2.67;100.00
11672;BME280;5892;43.412;24.612;2023-03-18T02:56:59;100610.28;;;2.58;100.00
11672;BME280;5892;43.412;24.612;2023-03-18T02:59:27;100610.09;;;2.65;100.00
11672;BME280;5892;43.412;24.612;2023-03-18T03:01:58;100598.16;;;2.61;100.00
11672;BME280;5892;43.412;24.612;2023-03-18T03:04:25;100539.75;;;2.04;100.00
11672;BME280;5892;43.412;24.612;2023-03-18T03:06:53;100586.44;;;2.55;100.00
11672;BME280;5892;43.412;24.612;2023-03-18T03:09:21;100539.88;;;2.31;100.00
11672;BME280;5892;43.412;24.612;2023-03-18T03:11:48;100594.75;;;2.70;100.00
11672;BME280;5892;43.412;24.612;2023-03-18T03:14:15;100540.81;;;2.42;100.00
11672;BME280;5892;43.412;24.612;2023-03-18T03:16:42;100569.56;;;2.70;100.00
11672;BME280;5892;43.412;24.612;2023-03-18T03:19:11;100588.41;;;2.81;100.00
11672;BME280;5892;43.412;24.612;2023-03-18T03:21:38;100597.59;;;2.80;100.00
11672;BME280;5892;43.412;24.612;2023-03-18T03:24:06;100588.94;;;2.83;100.00
11672;BME280;5892;43.412;24.612;2023-03-18T03:26:34;100593.22;;;2.79;100.00
11672;BME280;5892;43.412;24.612;2023-03-18T03:29:01;100590.59;;;2.84;100.00
11672;BME280;5892;43.412;24.612;2023-03-18T03:31:29;100560.47;;;2.54;100.00
11672;BME280;5892;43.412;24.612;2023-03-18T03:33:56;100592.69;;;2.77;100.00
11672;BME280;5892;43.412;24.612;2023-03-18T03:36:25;100518.56;;;2.13;100.00
11672;BME280;5892;43.412;24.612;2023-03-18T03:38:52;100547.69;;;2.49;100.00
11672;BME280;5892;43.412;24.612;2023-03-18T03:41:18;100590.03;;;2.82;100.00
11672;BME280;5892;43.412;24.612;2023-03-18T03:43:45;100597.06;;;2.83;100.00
11672;BME280;5892;43.412;24.612;2023-03-18T03:46:13;100589.97;;;2.77;100.00
11672;BME280;5892;43.412;24.612;2023-03-18T03:48:40;100523.34;;;2.28;100.00
11672;BME280;5892;43.412;24.612;2023-03-18T03:51:07;100515.59;;;2.36;100.00
11672;BME280;5892;43.412;24.612;2023-03-18T03:53:35;100610.94;;;2.87;100.00
11672;BME280;5892;43.412;24.612;2023-03-18T03:56:03;100587.88;;;2.84;100.00
11672;BME280;5892;43.412;24.612;2023-03-18T03:58:32;100588.19;;;2.88;100.00
11672;BME280;5892;43.412;24.612;2023-03-18T04:00:58;100594.28;;;2.78;100.00
11672;BME280;5892;43.412;24.612;2023-03-18T04:03:25;100574.81;;;2.76;100.00
11672;BME280;5892;43.412;24.612;2023-03-18T04:05:52;100582.34;;;2.74;100.00
11672;BME280;5892;43.412;24.612;2023-03-18T04:08:19;100596.06;;;2.89;100.00
11672;BME280;5892;43.412;24.612;2023-03-18T04:10:48;100590.16;;;2.92;100.00
11672;BME280;5892;43.412;24.612;2023-03-18T04:13:14;100589.53;;;2.85;100.00
11672;BME280;5892;43.412;24.612;2023-03-18T04:15:41;100478.06;;;2.18;100.00
11672;BME280;5892;43.412;24.612;2023-03-18T04:18:09;100595.69;;;3.03;100.00
11672;BME280;5892;43.412;24.612;2023-03-18T04:20:37;100576.00;;;2.85;100.00
11672;BME280;5892;43.412;24.612;2023-03-18T04:23:04;100596.19;;;2.99;100.00
11672;BME280;5892;43.412;24.612;2023-03-18T04:25:32;100602.72;;;3.04;100.00
11672;BME280;5892;43.412;24.612;2023-03-18T04:28:01;100606.00;;;3.06;100.00
11672;BME280;5892;43.412;24.612;2023-03-18T04:30:28;100608.28;;;3.14;100.00
11672;BME280;5892;43.412;24.612;2023-03-18T04:32:56;100599.28;;;3.08;100.00
11672;BME280;5892;43.412;24.612;2023-03-18T04:35:23;100604.69;;;3.08;100.00
11672;BME280;5892;43.412;24.612;2023-03-18T04:37:50;100608.00;;;3.15;100.00
11672;BME280;5892;43.412;24.612;2023-03-18T04:40:19;100503.91;;;2.31;100.00
11672;BME280;5892;43.412;24.612;2023-03-18T04:42:46;100620.47;;;2.94;100.00
11672;BME280;5892;43.412;24.612;2023-03-18T04:45:15;100623.53;;;2.98;100.00
11672;BME280;5892;43.412;24.612;2023-03-18T04:47:43;100614.56;;;2.97;100.00
11672;BME280;5892;43.412;24.612;2023-03-18T04:50:11;100610.09;;;3.08;100.00
11672;BME280;5892;43.412;24.612;2023-03-18T04:52:39;100612.88;;;3.13;100.00
11672;BME280;5892;43.412;24.612;2023-03-18T04:55:07;100603.34;;;3.11;100.00
11672;BME280;5892;43.412;24.612;2023-03-18T04:57:35;100572.53;;;2.90;100.00
11672;BME280;5892;43.412;24.612;2023-03-18T05:00:04;100596.91;;;3.17;100.00
11672;BME280;5892;43.412;24.612;2023-03-18T05:02:33;100621.75;;;3.09;100.00
11672;BME280;5892;43.412;24.612;2023-03-18T05:05:00;100625.22;;;2.82;100.00
11672;BME280;5892;43.412;24.612;2023-03-18T05:07:26;100625.91;;;2.94;100.00
11672;BME280;5892;43.412;24.612;2023-03-18T05:09:53;100597.69;;;2.90;100.00
11672;BME280;5892;43.412;24.612;2023-03-18T05:12:20;100628.41;;;3.23;100.00
11672;BME280;5892;43.412;24.612;2023-03-18T05:14:47;100587.28;;;3.04;100.00
11672;BME280;5892;43.412;24.612;2023-03-18T05:17:14;100626.56;;;3.28;100.00
11672;BME280;5892;43.412;24.612;2023-03-18T05:19:44;100641.47;;;3.31;100.00
11672;BME280;5892;43.412;24.612;2023-03-18T05:22:14;100643.75;;;3.39;100.00
11672;BME280;5892;43.412;24.612;2023-03-18T05:24:41;100624.22;;;3.37;100.00
11672;BME280;5892;43.412;24.612;2023-03-18T05:27:11;100644.72;;;3.55;100.00
11672;BME280;5892;43.412;24.612;2023-03-18T05:29:38;100630.84;;;3.51;100.00
11672;BME280;5892;43.412;24.612;2023-03-18T05:32:06;100650.13;;;3.55;100.00
11672;BME280;5892;43.412;24.612;2023-03-18T05:34:34;100649.75;;;3.73;100.00
11672;BME280;5892;43.412;24.612;2023-03-18T05:37:04;100633.16;;;3.64;100.00
11672;BME280;5892;43.412;24.612;2023-03-18T05:39:31;100653.91;;;3.80;100.00
11672;BME280;5892;43.412;24.612;2023-03-18T05:41:59;100620.69;;;3.63;100.00
11672;BME280;5892;43.412;24.612;2023-03-18T05:44:26;100657.34;;;4.03;100.00
11672;BME280;5892;43.412;24.612;2023-03-18T05:46:53;100662.59;;;4.14;100.00
11672;BME280;5892;43.412;24.612;2023-03-18T05:49:21;100637.63;;;4.49;100.00
11672;BME280;5892;43.412;24.612;2023-03-18T05:51:48;100662.31;;;5.00;100.00
11672;BME280;5892;43.412;24.612;2023-03-18T05:54:18;100587.84;;;4.86;100.00
11672;BME280;5892;43.412;24.612;2023-03-18T05:56:45;100671.16;;;5.47;100.00
11672;BME280;5892;43.412;24.612;2023-03-18T05:59:12;100616.75;;;5.17;100.00
11672;BME280;5892;43.412;24.612;2023-03-18T06:01:40;100642.31;;;5.26;100.00
11672;BME280;5892;43.412;24.612;2023-03-18T06:04:09;100672.00;;;5.58;98.86
11672;BME280;5892;43.412;24.612;2023-03-18T06:06:36;100629.28;;;5.33;98.50
11672;BME280;5892;43.412;24.612;2023-03-18T06:09:05;100653.81;;;5.59;97.94
11672;BME280;5892;43.412;24.612;2023-03-18T06:11:33;100678.09;;;6.01;96.81
11672;BME280;5892;43.412;24.612;2023-03-18T06:14:01;100690.88;;;6.05;94.75
11672;BME280;5892;43.412;24.612;2023-03-18T06:16:29;100681.63;;;6.11;94.42
11672;BME280;5892;43.412;24.612;2023-03-18T06:18:56;100678.09;;;6.11;94.01
11672;BME280;5892;43.412;24.612;2023-03-18T06:21:23;100692.78;;;6.15;94.55
11672;BME280;5892;43.412;24.612;2023-03-18T06:23:51;100698.47;;;6.38;93.19
11672;BME280;5892;43.412;24.612;2023-03-18T06:26:18;100693.03;;;6.28;92.50
11672;BME280;5892;43.412;24.612;2023-03-18T06:28:47;100701.50;;;6.42;91.69
11672;BME280;5892;43.412;24.612;2023-03-18T06:31:14;100696.56;;;6.74;89.66
11672;BME280;5892;43.412;24.612;2023-03-18T06:33:40;100710.84;;;7.20;87.97
11672;BME280;5892;43.412;24.612;2023-03-18T06:36:18;100659.03;;;7.26;87.28
11672;BME280;5892;43.412;24.612;2023-03-18T06:38:46;100695.41;;;7.55;83.55
11672;BME280;5892;43.412;24.612;2023-03-18T06:41:13;100729.22;;;7.54;79.82
11672;BME280;5892;43.412;24.612;2023-03-18T06:43:40;100623.72;;;7.05;79.30
11672;BME280;5892;43.412;24.612;2023-03-18T06:46:09;100687.28;;;7.45;78.52
11672;BME280;5892;43.412;24.612;2023-03-18T06:48:42;100682.31;;;6.98;76.74
11672;BME280;5892;43.412;24.612;2023-03-18T06:51:09;100621.44;;;6.53;77.74
11672;BME280;5892;43.412;24.612;2023-03-18T06:53:36;100719.06;;;7.10;77.86
11672;BME280;5892;43.412;24.612;2023-03-18T06:56:07;100687.59;;;6.59;76.02
11672;BME280;5892;43.412;24.612;2023-03-18T06:58:34;100713.66;;;7.00;75.91
11672;BME280;5892;43.412;24.612;2023-03-18T07:01:01;100705.78;;;6.89;75.01
11672;BME280;5892;43.412;24.612;2023-03-18T07:03:29;100662.03;;;6.29;72.46
11672;BME280;5892;43.412;24.612;2023-03-18T07:06:00;100710.97;;;6.60;72.19
11672;BME280;5892;43.412;24.612;2023-03-18T07:08:28;100654.13;;;6.43;70.95
11672;BME280;5892;43.412;24.612;2023-03-18T07:10:55;100724.22;;;7.12;68.16
11672;BME280;5892;43.412;24.612;2023-03-18T07:13:22;100689.09;;;7.05;68.21
11672;BME280;5892;43.412;24.612;2023-03-18T07:15:49;100730.13;;;7.93;68.35
11672;BME280;5892;43.412;24.612;2023-03-18T07:18:16;100724.78;;;7.73;62.33
11672;BME280;5892;43.412;24.612;2023-03-18T07:20:45;100726.38;;;7.84;60.53
11672;BME280;5892;43.412;24.612;2023-03-18T07:23:12;100685.81;;;7.08;59.74
11672;BME280;5892;43.412;24.612;2023-03-18T07:25:42;100728.38;;;7.63;61.86
11672;BME280;5892;43.412;24.612;2023-03-18T07:28:12;100701.75;;;7.45;64.15
11672;BME280;5892;43.412;24.612;2023-03-18T07:30:41;100734.00;;;7.82;63.83
11672;BME280;5892;43.412;24.612;2023-03-18T07:33:09;100742.09;;;7.97;64.36
11672;BME280;5892;43.412;24.612;2023-03-18T07:35:36;100732.31;;;7.91;61.78
11672;BME280;5892;43.412;24.612;2023-03-18T07:38:08;100739.81;;;8.15;59.13
11672;BME280;5892;43.412;24.612;2023-03-18T07:40:35;100749.78;;;8.29;58.33
11672;BME280;5892;43.412;24.612;2023-03-18T07:43:02;100747.41;;;8.18;55.91
11672;BME280;5892;43.412;24.612;2023-03-18T07:45:29;100687.28;;;7.94;53.98
11672;BME280;5892;43.412;24.612;2023-03-18T07:47:56;100681.97;;;7.74;54.80
11672;BME280;5892;43.412;24.612;2023-03-18T07:50:23;100749.88;;;8.19;53.75
11672;BME280;5892;43.412;24.612;2023-03-18T07:52:50;100672.94;;;7.24;53.40
11672;BME280;5892;43.412;24.612;2023-03-18T07:55:18;100688.50;;;7.18;54.55
11672;BME280;5892;43.412;24.612;2023-03-18T07:57:45;100777.66;;;7.82;55.69
11672;BME280;5892;43.412;24.612;2023-03-18T08:00:14;100749.38;;;7.63;54.60
11672;BME280;5892;43.412;24.612;2023-03-18T08:02:41;100779.41;;;7.63;52.75
11672;BME280;5892;43.412;24.612;2023-03-18T08:05:09;100741.06;;;7.29;54.83
11672;BME280;5892;43.412;24.612;2023-03-18T08:07:37;100754.09;;;7.47;53.71
11672;BME280;5892;43.412;24.612;2023-03-18T08:10:05;100722.72;;;7.50;54.45
11672;BME280;5892;43.412;24.612;2023-03-18T08:12:34;100788.69;;;8.06;54.05
11672;BME280;5892;43.412;24.612;2023-03-18T08:15:01;100801.59;;;8.00;52.90
11672;BME280;5892;43.412;24.612;2023-03-18T08:17:29;100796.97;;;7.91;51.51
11672;BME280;5892;43.412;24.612;2023-03-18T08:19:56;100802.31;;;7.57;50.42
11672;BME280;5892;43.412;24.612;2023-03-18T08:22:25;100818.75;;;7.42;52.50
11672;BME280;5892;43.412;24.612;2023-03-18T08:24:54;100810.34;;;7.13;53.08
11672;BME280;5892;43.412;24.612;2023-03-18T08:27:22;100798.88;;;7.26;52.99
11672;BME280;5892;43.412;24.612;2023-03-18T08:29:51;100712.38;;;6.52;53.42
11672;BME280;5892;43.412;24.612;2023-03-18T08:32:17;100831.59;;;7.21;54.11
11672;BME280;5892;43.412;24.612;2023-03-18T08:34:44;100817.94;;;7.31;53.42
11672;BME280;5892;43.412;24.612;2023-03-18T08:37:12;100787.44;;;7.14;53.84
11672;BME280;5892;43.412;24.612;2023-03-18T08:39:39;100805.19;;;7.11;54.42
11672;BME280;5892;43.412;24.612;2023-03-18T08:42:09;100829.16;;;7.04;54.44
11672;BME280;5892;43.412;24.612;2023-03-18T08:44:36;100812.22;;;7.22;55.41
11672;BME280;5892;43.412;24.612;2023-03-18T08:47:06;100800.75;;;7.36;56.04
11672;BME280;5892;43.412;24.612;2023-03-18T08:49:33;100808.31;;;7.64;57.52
11672;BME280;5892;43.412;24.612;2023-03-18T08:52:00;100779.97;;;7.55;57.36
11672;BME280;5892;43.412;24.612;2023-03-18T08:54:27;100817.22;;;7.85;58.32
11672;BME280;5892;43.412;24.612;2023-03-18T08:56:54;100833.38;;;7.66;58.45
11672;BME280;5892;43.412;24.612;2023-03-18T08:59:21;100807.91;;;7.11;59.76
11672;BME280;5892;43.412;24.612;2023-03-18T09:01:48;100828.34;;;6.99;61.41
11672;BME280;5892;43.412;24.612;2023-03-18T09:04:17;100803.03;;;6.88;61.35
11672;BME280;5892;43.412;24.612;2023-03-18T09:06:44;100825.34;;;7.15;61.83
11672;BME280;5892;43.412;24.612;2023-03-18T09:09:13;100794.69;;;7.49;59.44
11672;BME280;5892;43.412;24.612;2023-03-18T09:11:40;100823.31;;;7.56;59.21
11672;BME280;5892;43.412;24.612;2023-03-18T09:14:07;100817.09;;;7.46;60.06
11672;BME280;5892;43.412;24.612;2023-03-18T09:16:34;100832.63;;;7.45;58.97
11672;BME280;5892;43.412;24.612;2023-03-18T09:19:02;100814.88;;;7.58;60.99
11672;BME280;5892;43.412;24.612;2023-03-18T09:21:30;100808.22;;;7.84;57.26
11672;BME280;5892;43.412;24.612;2023-03-18T09:23:57;100805.50;;;7.79;58.02
11672;BME280;5892;43.412;24.612;2023-03-18T09:26:24;100799.22;;;7.84;54.23
11672;BME280;5892;43.412;24.612;2023-03-18T09:28:51;100818.22;;;7.99;55.61
11672;BME280;5892;43.412;24.612;2023-03-18T09:31:18;100801.78;;;8.14;55.14
11672;BME280;5892;43.412;24.612;2023-03-18T09:33:45;100819.47;;;8.17;54.53
11672;BME280;5892;43.412;24.612;2023-03-18T09:36:12;100830.50;;;7.96;52.99
11672;BME280;5892;43.412;24.612;2023-03-18T09:38:40;100822.66;;;7.90;55.57
11672;BME280;5892;43.412;24.612;2023-03-18T09:41:19;100769.91;;;7.45;55.70
11672;BME280;5892;43.412;24.612;2023-03-18T09:43:56;100809.81;;;7.85;55.96
11672;BME280;5892;43.412;24.612;2023-03-18T09:46:33;100807.59;;;7.97;57.31
11672;BME280;5892;43.412;24.612;2023-03-18T09:52:08;100813.59;;;7.99;49.75
11672;BME280;5892;43.412;24.612;2023-03-18T09:54:43;100783.84;;;7.98;51.42
11672;BME280;5892;43.412;24.612;2023-03-18T09:57:16;100801.53;;;8.11;53.84
11672;BME280;5892;43.412;24.612;2023-03-18T09:59:46;100821.31;;;7.82;54.29
11672;BME280;5892;43.412;24.612;2023-03-18T10:02:20;100804.00;;;8.02;54.42
11672;BME280;5892;43.412;24.612;2023-03-18T10:04:51;100786.50;;;8.08;54.36
11672;BME280;5892;43.412;24.612;2023-03-18T10:07:23;100792.16;;;8.32;53.65
11672;BME280;5892;43.412;24.612;2023-03-18T10:09:56;100802.41;;;8.45;50.99
11672;BME280;5892;43.412;24.612;2023-03-18T10:12:29;100784.13;;;8.74;51.12
11672;BME280;5892;43.412;24.612;2023-03-18T10:15:05;100735.97;;;8.55;50.56
11672;BME280;5892;43.412;24.612;2023-03-18T10:17:37;100794.56;;;8.72;50.32
11672;BME280;5892;43.412;24.612;2023-03-18T10:20:14;100792.53;;;8.49;49.87
11672;BME280;5892;43.412;24.612;2023-03-18T10:22:53;100744.03;;;8.36;50.73
11672;BME280;5892;43.412;24.612;2023-03-18T10:25:27;100782.19;;;8.46;50.69
11672;BME280;5892;43.412;24.612;2023-03-18T10:28:13;100784.38;;;8.44;51.08
11672;BME280;5892;43.412;24.612;2023-03-18T10:30:53;100789.34;;;8.42;51.95
11672;BME280;5892;43.412;24.612;2023-03-18T10:33:37;100783.16;;;8.60;50.93
11672;BME280;5892;43.412;24.612;2023-03-18T10:36:11;100749.00;;;8.63;50.63
11672;BME280;5892;43.412;24.612;2023-03-18T10:38:42;100785.50;;;8.77;50.57
11672;BME280;5892;43.412;24.612;2023-03-18T10:41:20;100780.25;;;8.80;50.12
11672;BME280;5892;43.412;24.612;2023-03-18T10:43:49;100789.44;;;8.95;50.23
11672;BME280;5892;43.412;24.612;2023-03-18T10:46:19;100782.13;;;9.14;49.43
11672;BME280;5892;43.412;24.612;2023-03-18T10:48:49;100758.50;;;8.99;47.49
11672;BME280;5892;43.412;24.612;2023-03-18T10:51:21;100765.44;;;9.15;48.37
11672;BME280;5892;43.412;24.612;2023-03-18T10:53:56;100773.69;;;9.34;47.05
11672;BME280;5892;43.412;24.612;2023-03-18T10:56:25;100764.91;;;9.13;47.52
11672;BME280;5892;43.412;24.612;2023-03-18T10:58:53;100764.13;;;9.37;47.60
11672;BME280;5892;43.412;24.612;2023-03-18T11:01:22;100698.94;;;8.96;45.72
11672;BME280;5892;43.412;24.612;2023-03-18T11:03:52;100734.38;;;9.30;45.80
11672;BME280;5892;43.412;24.612;2023-03-18T11:06:23;100747.81;;;9.50;45.33
11672;BME280;5892;43.412;24.612;2023-03-18T11:09:01;100742.34;;;9.69;47.68
11672;BME280;5892;43.412;24.612;2023-03-18T11:11:33;100750.41;;;9.79;47.29
11672;BME280;5892;43.412;24.612;2023-03-18T11:14:03;100750.53;;;9.93;45.23
11672;BME280;5892;43.412;24.612;2023-03-18T11:16:36;100731.44;;;9.88;44.08
11672;BME280;5892;43.412;24.612;2023-03-18T11:19:25;100713.22;;;9.78;43.72
11672;BME280;5892;43.412;24.612;2023-03-18T11:22:03;100729.47;;;9.69;44.07
11672;BME280;5892;43.412;24.612;2023-03-18T11:24:31;100683.56;;;9.66;45.01
11672;BME280;5892;43.412;24.612;2023-03-18T11:27:32;100649.91;;;9.47;45.06
11672;BME280;5892;43.412;24.612;2023-03-18T11:30:04;100690.59;;;9.72;44.57
11672;BME280;5892;43.412;24.612;2023-03-18T11:32:36;100711.03;;;9.99;44.31
11672;BME280;5892;43.412;24.612;2023-03-18T11:35:04;100712.03;;;10.03;44.57
11672;BME280;5892;43.412;24.612;2023-03-18T11:37:34;100711.22;;;10.21;45.65
11672;BME280;5892;43.412;24.612;2023-03-18T11:40:14;100706.41;;;10.13;44.14
11672;BME280;5892;43.412;24.612;2023-03-18T11:42:45;100705.88;;;10.11;43.96
11672;BME280;5892;43.412;24.612;2023-03-18T11:45:33;100698.97;;;10.18;44.71
11672;BME280;5892;43.412;24.612;2023-03-18T11:48:05;100703.50;;;10.42;44.52
11672;BME280;5892;43.412;24.612;2023-03-18T11:50:44;100685.22;;;10.37;44.68
11672;BME280;5892;43.412;24.612;2023-03-18T11:53:24;100696.59;;;10.31;44.01
11672;BME280;5892;43.412;24.612;2023-03-18T11:55:57;100686.50;;;10.26;44.93
11672;BME280;5892;43.412;24.612;2023-03-18T11:58:50;100694.72;;;10.26;44.38
11672;BME280;5892;43.412;24.612;2023-03-18T12:01:43;100683.34;;;10.19;43.93
11672;BME280;5892;43.412;24.612;2023-03-18T12:04:26;100658.47;;;9.97;44.35
11672;BME280;5892;43.412;24.612;2023-03-18T12:07:07;100694.31;;;10.19;43.73
11672;BME280;5892;43.412;24.612;2023-03-18T12:09:44;100675.63;;;10.21;43.88
11672;BME280;5892;43.412;24.612;2023-03-18T12:12:31;100669.47;;;10.10;44.19
11672;BME280;5892;43.412;24.612;2023-03-18T12:15:13;100684.91;;;10.25;43.37
11672;BME280;5892;43.412;24.612;2023-03-18T12:17:54;100675.91;;;10.38;44.10
11672;BME280;5892;43.412;24.612;2023-03-18T12:20:46;100692.25;;;10.43;41.87
11672;BME280;5892;43.412;24.612;2023-03-18T12:23:27;100685.66;;;10.44;42.20
11672;BME280;5892;43.412;24.612;2023-03-18T12:26:05;100689.75;;;10.28;42.62
11672;BME280;5892;43.412;24.612;2023-03-18T12:28:58;100694.56;;;10.36;41.79
11672;BME280;5892;43.412;24.612;2023-03-18T12:31:46;100654.09;;;9.96;41.81
11672;BME280;5892;43.412;24.612;2023-03-18T12:34:26;100688.78;;;10.38;42.90
11672;BME280;5892;43.412;24.612;2023-03-18T12:37:08;100678.59;;;10.57;41.83
11672;BME280;5892;43.412;24.612;2023-03-18T12:40:03;100636.78;;;10.19;42.42
11672;BME280;5892;43.412;24.612;2023-03-18T12:42:50;100677.59;;;10.67;42.47
11672;BME280;5892;43.412;24.612;2023-03-18T12:45:22;100674.34;;;10.78;43.04
11672;BME280;5892;43.412;24.612;2023-03-18T12:47:55;100692.41;;;10.66;42.59
11672;BME280;5892;43.412;24.612;2023-03-18T12:50:29;100671.06;;;10.49;43.28
11672;BME280;5892;43.412;24.612;2023-03-18T12:53:02;100683.91;;;10.35;43.08
11672;BME280;5892;43.412;24.612;2023-03-18T12:55:32;100679.34;;;10.30;42.45
11672;BME280;5892;43.412;24.612;2023-03-18T12:58:04;100669.31;;;10.20;44.16
11672;BME280;5892;43.412;24.612;2023-03-18T13:00:36;100696.81;;;9.97;45.56
11672;BME280;5892;43.412;24.612;2023-03-18T13:03:15;100687.09;;;9.86;46.41
11672;BME280;5892;43.412;24.612;2023-03-18T13:05:50;100676.31;;;9.94;46.16
11672;BME280;5892;43.412;24.612;2023-03-18T13:08:40;100678.16;;;10.17;46.29
11672;BME280;5892;43.412;24.612;2023-03-18T13:11:23;100678.28;;;10.26;44.90
11672;BME280;5892;43.412;24.612;2023-03-18T13:13:58;100680.09;;;10.17;44.98